sensor_id;sensor_type;location;lat;lon;timestamp;pressure;altitude;pressure_sealevel;temperature;humidity
56671;BME280;42545;50.054;8.306;2022-12-07T00:01:19;100130.72;;;0.59;nan
56671;BME280;42545;50.054;8.306;2022-12-07T00:03:48;100137.94;;;0.65;nan
56671;BME280;42545;50.054;8.306;2022-12-07T00:06:17;100132.13;;;0.69;nan
56671;BME280;42545;50.054;8.306;2022-12-07T00:08:44;100128.00;;;0.72;nan
56671;BME280;42545;50.054;8.306;2022-12-07T00:11:15;100135.13;;;0.76;nan
56671;BME280;42545;50.054;8.306;2022-12-07T00:13:43;100122.34;;;0.80;nan
56671;BME280;42545;50.054;8.306;2022-12-07T00:16:12;100119.84;;;0.81;nan
56671;BME280;42545;50.054;8.306;2022-12-07T00:18:39;100118.31;;;0.85;nan
56671;BME280;42545;50.054;8.306;2022-12-07T00:21:11;100111.50;;;0.87;nan
56671;BME280;42545;50.054;8.306;2022-12-07T00:23:39;100105.50;;;0.88;nan
56671;BME280;42545;50.054;8.306;2022-12-07T00:26:07;100098.69;;;0.90;nan
56671;BME280;42545;50.054;8.306;2022-12-07T00:28:36;100101.44;;;0.93;nan
56671;BME280;42545;50.054;8.306;2022-12-07T00:31:05;100091.13;;;0.94;nan
56671;BME280;42545;50.054;8.306;2022-12-07T00:33:32;100093.72;;;0.94;nan
56671;BME280;42545;50.054;8.306;2022-12-07T00:36:00;100095.53;;;0.95;nan
56671;BME280;42545;50.054;8.306;2022-12-07T00:38:28;100087.63;;;0.94;nan
56671;BME280;42545;50.054;8.306;2022-12-07T00:40:56;100072.13;;;0.95;nan
56671;BME280;42545;50.054;8.306;2022-12-07T00:43:24;100081.69;;;0.96;nan
56671;BME280;42545;50.054;8.306;2022-12-07T00:45:53;100083.59;;;0.99;nan
56671;BME280;42545;50.054;8.306;2022-12-07T00:48:24;100089.69;;;1.00;nan
56671;BME280;42545;50.054;8.306;2022-12-07T00:50:51;100083.84;;;1.04;nan
56671;BME280;42545;50.054;8.306;2022-12-07T00:53:18;100095.06;;;1.03;nan
56671;BME280;42545;50.054;8.306;2022-12-07T00:55:46;100088.78;;;0.99;nan
56671;BME280;42545;50.054;8.306;2022-12-07T00:58:14;100095.63;;;0.97;nan
56671;BME280;42545;50.054;8.306;2022-12-07T01:00:43;100091.94;;;0.93;nan
56671;BME280;42545;50.054;8.306;2022-12-07T01:03:14;100092.66;;;0.91;nan
56671;BME280;42545;50.054;8.306;2022-12-07T01:05:49;100089.09;;;0.89;nan
56671;BME280;42545;50.054;8.306;2022-12-07T01:08:17;100082.13;;;0.88;nan
56671;BME280;42545;50.054;8.306;2022-12-07T01:10:44;100084.78;;;0.89;nan
56671;BME280;42545;50.054;8.306;2022-12-07T01:13:11;100080.50;;;0.90;nan
56671;BME280;42545;50.054;8.306;2022-12-07T01:15:39;100069.28;;;0.91;nan
56671;BME280;42545;50.054;8.306;2022-12-07T01:18:07;100074.75;;;0.95;nan
56671;BME280;42545;50.054;8.306;2022-12-07T01:20:36;100067.84;;;0.96;nan
56671;BME280;42545;50.054;8.306;2022-12-07T01:23:03;100068.81;;;0.98;nan
56671;BME280;42545;50.054;8.306;2022-12-07T01:25:30;100069.78;;;1.00;nan
56671;BME280;42545;50.054;8.306;2022-12-07T01:27:57;100078.50;;;1.01;nan
56671;BME280;42545;50.054;8.306;2022-12-07T01:30:24;100069.78;;;1.00;nan
56671;BME280;42545;50.054;8.306;2022-12-07T01:32:51;100070.59;;;0.99;nan
56671;BME280;42545;50.054;8.306;2022-12-07T01:35:18;100074.00;;;0.98;nan
56671;BME280;42545;50.054;8.306;2022-12-07T01:37:46;100069.63;;;0.97;nan
56671;BME280;42545;50.054;8.306;2022-12-07T01:40:13;100068.66;;;0.95;nan
56671;BME280;42545;50.054;8.306;2022-12-07T01:42:39;100067.91;;;0.98;nan
56671;BME280;42545;50.054;8.306;2022-12-07T01:45:40;100069.63;;;0.97;nan
56671;BME280;42545;50.054;8.306;2022-12-07T01:48:08;100073.19;;;0.99;nan
56671;BME280;42545;50.054;8.306;2022-12-07T01:50:37;100073.28;;;1.01;nan
56671;BME280;42545;50.054;8.306;2022-12-07T01:53:09;100080.25;;;1.02;nan
56671;BME280;42545;50.054;8.306;2022-12-07T01:55:42;100070.75;;;1.02;nan
56671;BME280;42545;50.054;8.306;2022-12-07T01:58:11;100067.25;;;1.02;nan
56671;BME280;42545;50.054;8.306;2022-12-07T02:00:40;100061.19;;;1.01;nan
56671;BME280;42545;50.054;8.306;2022-12-07T02:03:09;100066.63;;;1.06;nan
56671;BME280;42545;50.054;8.306;2022-12-07T02:05:38;100065.91;;;1.08;nan
56671;BME280;42545;50.054;8.306;2022-12-07T02:08:08;100048.69;;;1.10;nan
56671;BME280;42545;50.054;8.306;2022-12-07T02:10:38;100047.81;;;1.10;nan
56671;BME280;42545;50.054;8.306;2022-12-07T02:13:09;100051.38;;;1.12;nan
56671;BME280;42545;50.054;8.306;2022-12-07T02:15:59;100058.53;;;1.16;nan
56671;BME280;42545;50.054;8.306;2022-12-07T02:18:38;100036.00;;;1.17;nan
56671;BME280;42545;50.054;8.306;2022-12-07T02:21:12;100046.59;;;1.20;nan
56671;BME280;42545;50.054;8.306;2022-12-07T02:24:01;100047.56;;;1.22;nan
56671;BME280;42545;50.054;8.306;2022-12-07T02:27:04;100042.34;;;1.22;nan
56671;BME280;42545;50.054;8.306;2022-12-07T02:29:39;100041.66;;;1.24;nan
56671;BME280;42545;50.054;8.306;2022-12-07T02:32:10;100039.19;;;1.27;nan
56671;BME280;42545;50.054;8.306;2022-12-07T02:34:44;100036.69;;;1.29;nan
56671;BME280;42545;50.054;8.306;2022-12-07T02:37:23;100031.47;;;1.29;nan
56671;BME280;42545;50.054;8.306;2022-12-07T02:39:55;100040.41;;;1.34;nan
56671;BME280;42545;50.054;8.306;2022-12-07T02:42:29;100034.38;;;1.35;nan
56671;BME280;42545;50.054;8.306;2022-12-07T02:45:01;100038.88;;;1.38;nan
56671;BME280;42545;50.054;8.306;2022-12-07T02:47:29;100034.56;;;1.38;nan
56671;BME280;42545;50.054;8.306;2022-12-07T02:49:58;100037.25;;;1.40;nan
56671;BME280;42545;50.054;8.306;2022-12-07T02:52:25;100024.16;;;1.38;nan
56671;BME280;42545;50.054;8.306;2022-12-07T02:54:52;100021.66;;;1.40;nan
56671;BME280;42545;50.054;8.306;2022-12-07T02:57:37;100030.41;;;1.42;nan
56671;BME280;42545;50.054;8.306;2022-12-07T03:00:13;100034.81;;;1.43;nan
56671;BME280;42545;50.054;8.306;2022-12-07T03:02:50;100033.19;;;1.45;nan
56671;BME280;42545;50.054;8.306;2022-12-07T03:05:27;100026.28;;;1.45;nan
56671;BME280;42545;50.054;8.306;2022-12-07T03:08:02;100024.56;;;1.46;nan
56671;BME280;42545;50.054;8.306;2022-12-07T03:10:38;100012.22;;;1.42;nan
56671;BME280;42545;50.054;8.306;2022-12-07T03:13:11;100014.25;;;1.47;nan
56671;BME280;42545;50.054;8.306;2022-12-07T03:15:49;100011.81;;;1.50;nan
56671;BME280;42545;50.054;8.306;2022-12-07T03:18:22;100017.88;;;1.51;nan
56671;BME280;42545;50.054;8.306;2022-12-07T03:20:52;100019.69;;;1.52;nan
56671;BME280;42545;50.054;8.306;2022-12-07T03:23:24;100011.88;;;1.52;nan
56671;BME280;42545;50.054;8.306;2022-12-07T03:25:55;100016.25;;;1.53;nan
56671;BME280;42545;50.054;8.306;2022-12-07T03:28:27;100008.53;;;1.54;nan
56671;BME280;42545;50.054;8.306;2022-12-07T03:30:58;100012.03;;;1.55;nan
56671;BME280;42545;50.054;8.306;2022-12-07T03:33:31;100009.50;;;1.57;nan
56671;BME280;42545;50.054;8.306;2022-12-07T03:36:01;100012.19;;;1.58;nan
56671;BME280;42545;50.054;8.306;2022-12-07T03:38:34;100007.00;;;1.58;nan
56671;BME280;42545;50.054;8.306;2022-12-07T03:41:05;100005.28;;;1.59;nan
56671;BME280;42545;50.054;8.306;2022-12-07T03:43:34;99999.28;;;1.60;nan
56671;BME280;42545;50.054;8.306;2022-12-07T03:46:11;100005.44;;;1.62;nan
56671;BME280;42545;50.054;8.306;2022-12-07T03:48:48;100011.63;;;1.64;nan
56671;BME280;42545;50.054;8.306;2022-12-07T03:51:21;100010.72;;;1.63;nan
56671;BME280;42545;50.054;8.306;2022-12-07T03:53:54;100007.38;;;1.66;nan
56671;BME280;42545;50.054;8.306;2022-12-07T03:56:25;100006.56;;;1.67;nan
56671;BME280;42545;50.054;8.306;2022-12-07T03:58:55;99999.66;;;1.67;nan
56671;BME280;42545;50.054;8.306;2022-12-07T04:01:25;100003.97;;;1.67;nan
56671;BME280;42545;50.054;8.306;2022-12-07T04:03:54;99996.09;;;1.65;nan
56671;BME280;42545;50.054;8.306;2022-12-07T04:06:21;99995.41;;;1.69;nan
56671;BME280;42545;50.054;8.306;2022-12-07T04:08:48;100000.63;;;1.69;nan
56671;BME280;42545;50.054;8.306;2022-12-07T04:11:15;99996.25;;;1.68;nan
56671;BME280;42545;50.054;8.306;2022-12-07T04:13:42;99998.09;;;1.71;nan
56671;BME280;42545;50.054;8.306;2022-12-07T04:16:28;100004.28;;;1.73;nan
56671;BME280;42545;50.054;8.306;2022-12-07T04:18:55;99998.09;;;1.71;nan
56671;BME280;42545;50.054;8.306;2022-12-07T04:21:22;99999.16;;;1.75;nan
56671;BME280;42545;50.054;8.306;2022-12-07T04:23:49;100002.63;;;1.75;nan
56671;BME280;42545;50.054;8.306;2022-12-07T04:26:16;100007.03;;;1.76;nan
56671;BME280;42545;50.054;8.306;2022-12-07T04:28:44;99997.59;;;1.78;nan
56671;BME280;42545;50.054;8.306;2022-12-07T04:31:12;100000.13;;;1.77;nan
56671;BME280;42545;50.054;8.306;2022-12-07T04:33:41;100008.97;;;1.80;nan
56671;BME280;42545;50.054;8.306;2022-12-07T04:36:08;100003.84;;;1.82;nan
56671;BME280;42545;50.054;8.306;2022-12-07T04:38:34;100000.50;;;1.84;nan
56671;BME280;42545;50.054;8.306;2022-12-07T04:41:05;99997.09;;;1.85;nan
56671;BME280;42545;50.054;8.306;2022-12-07T04:43:32;99999.69;;;1.85;nan
56671;BME280;42545;50.054;8.306;2022-12-07T04:45:59;99998.06;;;1.87;nan
56671;BME280;42545;50.054;8.306;2022-12-07T04:48:27;99995.53;;;1.89;nan
56671;BME280;42545;50.054;8.306;2022-12-07T04:50:55;99998.31;;;1.92;nan
56671;BME280;42545;50.054;8.306;2022-12-07T04:53:22;99999.28;;;1.94;nan
56671;BME280;42545;50.054;8.306;2022-12-07T04:55:49;99993.19;;;1.94;nan
56671;BME280;42545;50.054;8.306;2022-12-07T04:58:16;99992.50;;;1.98;nan
56671;BME280;42545;50.054;8.306;2022-12-07T05:00:43;100000.41;;;1.99;nan
56671;BME280;42545;50.054;8.306;2022-12-07T05:03:10;99988.34;;;2.01;nan
56671;BME280;42545;50.054;8.306;2022-12-07T05:05:39;99992.72;;;2.02;nan
56671;BME280;42545;50.054;8.306;2022-12-07T05:08:08;99995.50;;;2.05;nan
56671;BME280;42545;50.054;8.306;2022-12-07T05:10:35;99989.41;;;2.05;nan
56671;BME280;42545;50.054;8.306;2022-12-07T05:13:02;99990.44;;;2.08;nan
56671;BME280;42545;50.054;8.306;2022-12-07T05:15:29;99994.00;;;2.10;nan
56671;BME280;42545;50.054;8.306;2022-12-07T05:17:56;99997.56;;;2.13;nan
56671;BME280;42545;50.054;8.306;2022-12-07T05:20:24;99996.91;;;2.17;nan
56671;BME280;42545;50.054;8.306;2022-12-07T05:22:51;99996.97;;;2.18;nan
56671;BME280;42545;50.054;8.306;2022-12-07T05:25:19;99989.25;;;2.20;nan
56671;BME280;42545;50.054;8.306;2022-12-07T05:27:46;99992.66;;;2.19;nan
56671;BME280;42545;50.054;8.306;2022-12-07T05:30:15;99994.53;;;2.21;nan
56671;BME280;42545;50.054;8.306;2022-12-07T05:32:41;99985.81;;;2.21;nan
56671;BME280;42545;50.054;8.306;2022-12-07T05:35:09;99995.59;;;2.25;nan
56671;BME280;42545;50.054;8.306;2022-12-07T05:37:36;99991.25;;;2.25;nan
56671;BME280;42545;50.054;8.306;2022-12-07T05:40:03;99985.25;;;2.26;nan
56671;BME280;42545;50.054;8.306;2022-12-07T05:42:35;99993.09;;;2.28;nan
56671;BME280;42545;50.054;8.306;2022-12-07T05:45:04;99989.78;;;2.30;nan
56671;BME280;42545;50.054;8.306;2022-12-07T05:47:31;99984.50;;;2.29;nan
56671;BME280;42545;50.054;8.306;2022-12-07T05:49:58;99984.66;;;2.32;nan
56671;BME280;42545;50.054;8.306;2022-12-07T05:52:25;99989.00;;;2.33;nan
56671;BME280;42545;50.054;8.306;2022-12-07T05:54:52;99986.50;;;2.35;nan
56671;BME280;42545;50.054;8.306;2022-12-07T05:57:20;99982.94;;;2.33;nan
56671;BME280;42545;50.054;8.306;2022-12-07T05:59:49;99994.38;;;2.36;nan
56671;BME280;42545;50.054;8.306;2022-12-07T06:02:15;99993.50;;;2.36;nan
56671;BME280;42545;50.054;8.306;2022-12-07T06:04:45;99993.50;;;2.36;nan
56671;BME280;42545;50.054;8.306;2022-12-07T06:07:14;99986.50;;;2.35;nan
56671;BME280;42545;50.054;8.306;2022-12-07T06:09:42;99989.19;;;2.36;nan
56671;BME280;42545;50.054;8.306;2022-12-07T06:12:10;99987.44;;;2.37;nan
56671;BME280;42545;50.054;8.306;2022-12-07T06:14:57;99992.66;;;2.37;nan
56671;BME280;42545;50.054;8.306;2022-12-07T06:17:24;99984.84;;;2.37;nan
56671;BME280;42545;50.054;8.306;2022-12-07T06:19:51;99986.66;;;2.38;nan
56671;BME280;42545;50.054;8.306;2022-12-07T06:22:18;99983.22;;;2.39;nan
56671;BME280;42545;50.054;8.306;2022-12-07T06:24:44;99982.31;;;2.38;nan
56671;BME280;42545;50.054;8.306;2022-12-07T06:27:11;99985.16;;;2.43;nan
56671;BME280;42545;50.054;8.306;2022-12-07T06:29:38;99988.56;;;2.42;nan
56671;BME280;42545;50.054;8.306;2022-12-07T06:32:06;99988.50;;;2.40;nan
56671;BME280;42545;50.054;8.306;2022-12-07T06:34:33;99986.66;;;2.38;nan
56671;BME280;42545;50.054;8.306;2022-12-07T06:37:00;99985.69;;;2.36;nan
56671;BME280;42545;50.054;8.306;2022-12-07T06:39:28;99982.09;;;2.34;nan
56671;BME280;42545;50.054;8.306;2022-12-07T06:41:55;99984.56;;;2.30;nan
56671;BME280;42545;50.054;8.306;2022-12-07T06:44:22;99992.31;;;2.29;nan
56671;BME280;42545;50.054;8.306;2022-12-07T06:46:50;99997.59;;;2.30;nan
56671;BME280;42545;50.054;8.306;2022-12-07T06:49:19;99993.19;;;2.29;nan
56671;BME280;42545;50.054;8.306;2022-12-07T06:51:46;99991.34;;;2.27;nan
56671;BME280;42545;50.054;8.306;2022-12-07T06:54:14;99999.06;;;2.25;nan
56671;BME280;42545;50.054;8.306;2022-12-07T06:56:41;99989.25;;;2.20;nan
56671;BME280;42545;50.054;8.306;2022-12-07T06:59:08;99995.19;;;2.17;nan
56671;BME280;42545;50.054;8.306;2022-12-07T07:01:35;99995.94;;;2.15;nan
56671;BME280;42545;50.054;8.306;2022-12-07T07:04:02;99996.78;;;2.14;nan
56671;BME280;42545;50.054;8.306;2022-12-07T07:06:31;99992.28;;;2.11;nan
56671;BME280;42545;50.054;8.306;2022-12-07T07:08:58;99993.19;;;2.11;nan
56671;BME280;42545;50.054;8.306;2022-12-07T07:11:25;100001.22;;;2.16;nan
56671;BME280;42545;50.054;8.306;2022-12-07T07:13:52;100002.19;;;2.18;nan
56671;BME280;42545;50.054;8.306;2022-12-07T07:16:22;100004.88;;;2.20;nan
56671;BME280;42545;50.054;8.306;2022-12-07T07:18:51;100003.16;;;2.20;nan
56671;BME280;42545;50.054;8.306;2022-12-07T07:21:17;100011.19;;;2.25;nan
56671;BME280;42545;50.054;8.306;2022-12-07T07:23:46;100005.16;;;2.26;nan
56671;BME280;42545;50.054;8.306;2022-12-07T07:26:12;100013.06;;;2.27;nan
56671;BME280;42545;50.054;8.306;2022-12-07T07:28:43;100015.66;;;2.27;nan
56671;BME280;42545;50.054;8.306;2022-12-07T07:31:12;100020.78;;;2.26;nan
56671;BME280;42545;50.054;8.306;2022-12-07T07:33:39;100016.31;;;2.23;nan
56671;BME280;42545;50.054;8.306;2022-12-07T07:36:06;100022.34;;;2.22;nan
56671;BME280;42545;50.054;8.306;2022-12-07T07:38:33;100029.09;;;2.19;nan
56671;BME280;42545;50.054;8.306;2022-12-07T07:41:02;100032.47;;;2.16;nan
56671;BME280;42545;50.054;8.306;2022-12-07T07:43:29;100027.84;;;2.10;nan
56671;BME280;42545;50.054;8.306;2022-12-07T07:45:56;100030.28;;;2.07;nan
56671;BME280;42545;50.054;8.306;2022-12-07T07:48:24;100035.31;;;2.04;nan
56671;BME280;42545;50.054;8.306;2022-12-07T07:50:51;100027.47;;;2.03;nan
56671;BME280;42545;50.054;8.306;2022-12-07T07:53:17;100028.19;;;2.00;nan
56671;BME280;42545;50.054;8.306;2022-12-07T07:55:50;100031.53;;;1.98;nan
56671;BME280;42545;50.054;8.306;2022-12-07T07:58:22;100034.94;;;1.97;nan
56671;BME280;42545;50.054;8.306;2022-12-07T08:00:52;100034.06;;;1.96;nan
56671;BME280;42545;50.054;8.306;2022-12-07T08:03:21;100028.88;;;1.96;nan
56671;BME280;42545;50.054;8.306;2022-12-07T08:05:48;100030.72;;;1.99;nan
56671;BME280;42545;50.054;8.306;2022-12-07T08:08:15;100025.66;;;2.02;nan
56671;BME280;42545;50.054;8.306;2022-12-07T08:10:42;100025.84;;;2.05;nan
56671;BME280;42545;50.054;8.306;2022-12-07T08:13:09;100027.69;;;2.07;nan
56671;BME280;42545;50.054;8.306;2022-12-07T08:15:43;100028.72;;;2.11;nan
56671;BME280;42545;50.054;8.306;2022-12-07T08:18:12;100035.88;;;2.15;nan
56671;BME280;42545;50.054;8.306;2022-12-07T08:20:40;100038.63;;;2.18;nan
56671;BME280;42545;50.054;8.306;2022-12-07T08:23:08;100041.41;;;2.21;nan
56671;BME280;42545;50.054;8.306;2022-12-07T08:25:35;100040.81;;;2.27;nan
56671;BME280;42545;50.054;8.306;2022-12-07T08:28:02;100038.34;;;2.30;nan
56671;BME280;42545;50.054;8.306;2022-12-07T08:30:31;100034.25;;;2.35;nan
56671;BME280;42545;50.054;8.306;2022-12-07T08:33:00;100030.06;;;2.39;nan
56671;BME280;42545;50.054;8.306;2022-12-07T08:35:27;100035.28;;;2.39;nan
56671;BME280;42545;50.054;8.306;2022-12-07T08:37:55;100027.41;;;2.37;nan
56671;BME280;42545;50.054;8.306;2022-12-07T08:40:23;100032.03;;;2.43;nan
56671;BME280;42545;50.054;8.306;2022-12-07T08:42:50;100032.84;;;2.42;nan
56671;BME280;42545;50.054;8.306;2022-12-07T08:45:19;100043.69;;;2.51;nan
56671;BME280;42545;50.054;8.306;2022-12-07T08:47:51;100039.53;;;2.55;nan
56671;BME280;42545;50.054;8.306;2022-12-07T08:50:21;100041.78;;;2.65;nan
56671;BME280;42545;50.054;8.306;2022-12-07T08:52:51;100034.31;;;2.73;nan
56671;BME280;42545;50.054;8.306;2022-12-07T08:55:20;100044.28;;;2.81;nan
56671;BME280;42545;50.054;8.306;2022-12-07T08:57:47;100029.72;;;2.86;nan
56671;BME280;42545;50.054;8.306;2022-12-07T09:00:16;100032.84;;;2.97;nan
56671;BME280;42545;50.054;8.306;2022-12-07T09:02:43;100033.25;;;3.06;nan
56671;BME280;42545;50.054;8.306;2022-12-07T09:05:11;100035.22;;;3.11;nan
56671;BME280;42545;50.054;8.306;2022-12-07T09:07:42;100035.47;;;3.17;nan
56671;BME280;42545;50.054;8.306;2022-12-07T09:10:10;100037.00;;;3.31;nan
56671;BME280;42545;50.054;8.306;2022-12-07T09:12:38;100026.22;;;3.43;nan
56671;BME280;42545;50.054;8.306;2022-12-07T09:15:08;100033.69;;;3.74;nan
56671;BME280;42545;50.054;8.306;2022-12-07T09:17:35;100034.34;;;3.90;nan
56671;BME280;42545;50.054;8.306;2022-12-07T09:20:03;100040.50;;;3.92;nan
56671;BME280;42545;50.054;8.306;2022-12-07T09:22:31;100036.53;;;4.00;nan
56671;BME280;42545;50.054;8.306;2022-12-07T09:25:00;100034.78;;;4.00;nan
56671;BME280;42545;50.054;8.306;2022-12-07T09:27:28;100049.69;;;4.03;nan
56671;BME280;42545;50.054;8.306;2022-12-07T09:29:55;100036.91;;;4.09;nan
56671;BME280;42545;50.054;8.306;2022-12-07T09:32:22;100047.16;;;4.26;nan
56671;BME280;42545;50.054;8.306;2022-12-07T09:34:49;100037.63;;;4.49;nan
56671;BME280;42545;50.054;8.306;2022-12-07T09:37:16;100035.09;;;4.50;nan
56671;BME280;42545;50.054;8.306;2022-12-07T09:39:43;100038.19;;;4.62;nan
56671;BME280;42545;50.054;8.306;2022-12-07T09:42:19;100039.00;;;4.61;nan
56671;BME280;42545;50.054;8.306;2022-12-07T09:44:52;100041.25;;;4.73;nan
56671;BME280;42545;50.054;8.306;2022-12-07T09:47:19;100043.44;;;4.85;nan
56671;BME280;42545;50.054;8.306;2022-12-07T09:49:47;100034.16;;;4.71;nan
56671;BME280;42545;50.054;8.306;2022-12-07T09:52:19;100044.72;;;4.96;nan
56671;BME280;42545;50.054;8.306;2022-12-07T09:54:49;100037.78;;;5.19;nan
56671;BME280;42545;50.054;8.306;2022-12-07T09:57:22;100025.56;;;5.43;nan
56671;BME280;42545;50.054;8.306;2022-12-07T09:59:52;100024.19;;;5.78;nan
56671;BME280;42545;50.054;8.306;2022-12-07T10:02:35;100015.03;;;5.91;nan
56671;BME280;42545;50.054;8.306;2022-12-07T10:05:04;100009.72;;;5.89;nan
56671;BME280;42545;50.054;8.306;2022-12-07T10:07:32;100009.47;;;6.33;nan
56671;BME280;42545;50.054;8.306;2022-12-07T10:10:03;100004.22;;;6.60;nan
56671;BME280;42545;50.054;8.306;2022-12-07T10:12:53;100003.50;;;6.93;nan
56671;BME280;42545;50.054;8.306;2022-12-07T10:15:22;99995.19;;;7.38;nan
56671;BME280;42545;50.054;8.306;2022-12-07T10:17:50;99995.25;;;7.73;nan
56671;BME280;42545;50.054;8.306;2022-12-07T10:20:20;99989.16;;;8.07;nan
56671;BME280;42545;50.054;8.306;2022-12-07T10:22:57;99989.28;;;8.47;nan
56671;BME280;42545;50.054;8.306;2022-12-07T10:25:27;99991.06;;;8.48;nan
56671;BME280;42545;50.054;8.306;2022-12-07T10:28:12;99985.28;;;8.28;nan
56671;BME280;42545;50.054;8.306;2022-12-07T10:30:52;99982.78;;;7.98;76.00
56671;BME280;42545;50.054;8.306;2022-12-07T10:33:29;99983.06;;;7.75;77.59
56671;BME280;42545;50.054;8.306;2022-12-07T10:35:58;99977.81;;;7.75;78.81
56671;BME280;42545;50.054;8.306;2022-12-07T10:38:26;99969.59;;;7.63;78.20
56671;BME280;42545;50.054;8.306;2022-12-07T10:41:03;99970.44;;;7.95;78.08
56671;BME280;42545;50.054;8.306;2022-12-07T10:43:32;99961.09;;;8.06;77.13
56671;BME280;42545;50.054;8.306;2022-12-07T10:46:17;99963.88;;;7.78;74.15
56671;BME280;42545;50.054;8.306;2022-12-07T10:48:54;99959.38;;;7.74;76.24
56671;BME280;42545;50.054;8.306;2022-12-07T10:51:27;99962.81;;;7.71;77.13
56671;BME280;42545;50.054;8.306;2022-12-07T10:54:10;99957.81;;;7.80;76.63
56671;BME280;42545;50.054;8.306;2022-12-07T10:56:51;99966.06;;;7.94;74.40
56671;BME280;42545;50.054;8.306;2022-12-07T10:59:28;99956.75;;;8.07;73.57
56671;BME280;42545;50.054;8.306;2022-12-07T11:02:13;99960.59;;;7.53;74.34
56671;BME280;42545;50.054;8.306;2022-12-07T11:04:53;99965.78;;;6.89;74.47
56671;BME280;42545;50.054;8.306;2022-12-07T11:07:31;99966.94;;;6.69;75.92
56671;BME280;42545;50.054;8.306;2022-12-07T11:10:05;99968.88;;;6.47;76.61
56671;BME280;42545;50.054;8.306;2022-12-07T11:12:48;99966.84;;;6.39;78.73
56671;BME280;42545;50.054;8.306;2022-12-07T11:15:22;99961.38;;;6.31;78.04
56671;BME280;42545;50.054;8.306;2022-12-07T11:17:57;99959.25;;;6.46;80.01
56671;BME280;42545;50.054;8.306;2022-12-07T11:20:39;99958.34;;;6.46;79.09
56671;BME280;42545;50.054;8.306;2022-12-07T11:23:16;99954.47;;;6.62;79.30
56671;BME280;42545;50.054;8.306;2022-12-07T11:25:53;99951.28;;;7.02;76.63
56671;BME280;42545;50.054;8.306;2022-12-07T11:28:40;99948.31;;;7.52;78.04
56671;BME280;42545;50.054;8.306;2022-12-07T11:31:20;99943.63;;;7.40;73.41
56671;BME280;42545;50.054;8.306;2022-12-07T11:33:54;99945.72;;;6.91;73.42
56671;BME280;42545;50.054;8.306;2022-12-07T11:36:37;99932.66;;;6.63;76.17
56671;BME280;42545;50.054;8.306;2022-12-07T11:39:23;99939.06;;;6.44;77.69
56671;BME280;42545;50.054;8.306;2022-12-07T11:41:55;99941.41;;;6.34;80.22
56671;BME280;42545;50.054;8.306;2022-12-07T11:44:27;99926.53;;;6.06;79.61
56671;BME280;42545;50.054;8.306;2022-12-07T11:47:01;99943.31;;;6.13;82.52
56671;BME280;42545;50.054;8.306;2022-12-07T11:49:40;99936.81;;;6.00;81.60
56671;BME280;42545;50.054;8.306;2022-12-07T11:52:16;99934.97;;;5.97;82.73
56671;BME280;42545;50.054;8.306;2022-12-07T11:54:47;99929.69;;;6.23;82.27
56671;BME280;42545;50.054;8.306;2022-12-07T11:57:18;99923.50;;;6.48;81.12
56671;BME280;42545;50.054;8.306;2022-12-07T11:59:50;99919.69;;;6.67;82.78
56671;BME280;42545;50.054;8.306;2022-12-07T12:02:21;99918.91;;;6.71;81.01
56671;BME280;42545;50.054;8.306;2022-12-07T12:04:55;99911.38;;;6.82;82.92
56671;BME280;42545;50.054;8.306;2022-12-07T12:07:27;99907.03;;;6.83;83.08
56671;BME280;42545;50.054;8.306;2022-12-07T12:09:58;99908.28;;;6.96;82.21
56671;BME280;42545;50.054;8.306;2022-12-07T12:12:44;99908.69;;;7.11;83.88
56671;BME280;42545;50.054;8.306;2022-12-07T12:15:24;99903.19;;;7.02;82.40
56671;BME280;42545;50.054;8.306;2022-12-07T12:18:09;99902.31;;;6.71;82.85
56671;BME280;42545;50.054;8.306;2022-12-07T12:20:46;99904.22;;;6.46;82.74
56671;BME280;42545;50.054;8.306;2022-12-07T12:23:18;99900.34;;;6.33;84.10
56671;BME280;42545;50.054;8.306;2022-12-07T12:25:50;99893.69;;;6.45;85.80
56671;BME280;42545;50.054;8.306;2022-12-07T12:28:23;99892.81;;;6.74;86.39
56671;BME280;42545;50.054;8.306;2022-12-07T12:31:06;99886.88;;;7.13;85.75
56671;BME280;42545;50.054;8.306;2022-12-07T12:33:35;99891.03;;;7.37;82.17
56671;BME280;42545;50.054;8.306;2022-12-07T12:36:25;99883.97;;;7.35;76.34
56671;BME280;42545;50.054;8.306;2022-12-07T12:39:10;99881.28;;;7.66;80.07
56671;BME280;42545;50.054;8.306;2022-12-07T12:41:53;99884.31;;;7.82;78.61
56671;BME280;42545;50.054;8.306;2022-12-07T12:44:42;99878.97;;;7.79;76.65
56671;BME280;42545;50.054;8.306;2022-12-07T12:47:57;99876.97;;;7.68;77.34
56671;BME280;42545;50.054;8.306;2022-12-07T12:50:30;99870.22;;;7.78;79.05
56671;BME280;42545;50.054;8.306;2022-12-07T12:53:02;99868.41;;;7.77;78.68
56671;BME280;42545;50.054;8.306;2022-12-07T12:56:12;99868.47;;;7.79;78.44
56671;BME280;42545;50.054;8.306;2022-12-07T12:58:44;99862.66;;;7.57;73.87
56671;BME280;42545;50.054;8.306;2022-12-07T13:01:38;99857.41;;;7.57;74.31
56671;BME280;42545;50.054;8.306;2022-12-07T13:04:25;99863.41;;;7.51;75.95
56671;BME280;42545;50.054;8.306;2022-12-07T13:06:54;99854.50;;;7.45;76.26
56671;BME280;42545;50.054;8.306;2022-12-07T13:09:25;99867.13;;;7.26;76.46
56671;BME280;42545;50.054;8.306;2022-12-07T13:12:01;99861.63;;;7.16;79.34
56671;BME280;42545;50.054;8.306;2022-12-07T13:14:52;99865.06;;;6.83;77.63
56671;BME280;42545;50.054;8.306;2022-12-07T13:20:40;99863.91;;;6.14;81.38
56671;BME280;42545;50.054;8.306;2022-12-07T13:23:09;99857.56;;;5.80;80.77
56671;BME280;42545;50.054;8.306;2022-12-07T13:25:46;99862.19;;;5.62;82.93
56671;BME280;42545;50.054;8.306;2022-12-07T13:28:17;99864.44;;;5.51;83.61
56671;BME280;42545;50.054;8.306;2022-12-07T13:30:50;99866.69;;;5.38;84.42
56671;BME280;42545;50.054;8.306;2022-12-07T13:33:21;99861.06;;;5.28;85.17
56671;BME280;42545;50.054;8.306;2022-12-07T13:35:53;99869.63;;;5.24;85.91
56671;BME280;42545;50.054;8.306;2022-12-07T13:38:25;99870.44;;;5.21;86.95
56671;BME280;42545;50.054;8.306;2022-12-07T13:41:12;99871.88;;;5.13;86.89
56671;BME280;42545;50.054;8.306;2022-12-07T13:43:49;99863.88;;;5.08;89.01
56671;BME280;42545;50.054;8.306;2022-12-07T13:46:18;99865.63;;;5.08;91.26
56671;BME280;42545;50.054;8.306;2022-12-07T13:48:48;99868.59;;;4.94;90.23